createdAt,value
2022-11-08T00:00:48.095Z,74.77
2022-11-08T00:03:14.903Z,74.34
2022-11-08T00:05:41.671Z,74.62
2022-11-08T00:08:08.281Z,75.46
2022-11-08T00:10:34.865Z,74.84
2022-11-08T00:13:01.474Z,74.49
2022-11-08T00:15:28.045Z,74.18
2022-11-08T00:17:55.887Z,73.65
2022-11-08T00:20:22.453Z,73.14
2022-11-08T00:22:49.060Z,73.28
2022-11-08T00:25:15.807Z,73.99
2022-11-08T00:27:42.476Z,74.13
2022-11-08T00:30:09.653Z,75.50
2022-11-08T00:32:36.442Z,74.84
2022-11-08T00:35:03.030Z,75.23
2022-11-08T00:37:29.671Z,75.19
2022-11-08T00:39:56.300Z,75.01
2022-11-08T00:42:22.892Z,75.58
2022-11-08T00:44:49.454Z,75.28
2022-11-08T00:47:16.212Z,74.92
2022-11-08T00:49:42.769Z,73.97
2022-11-08T00:52:09.550Z,73.30
2022-11-08T00:54:36.128Z,72.33
2022-11-08T00:57:02.969Z,72.16
2022-11-08T00:59:29.524Z,71.91
2022-11-08T01:01:56.356Z,71.67
2022-11-08T01:04:22.986Z,72.18
2022-11-08T01:06:49.695Z,72.37
2022-11-08T01:09:16.320Z,72.64
2022-11-08T01:11:43.051Z,72.98
2022-11-08T01:14:09.842Z,72.95
2022-11-08T01:16:36.527Z,73.12
2022-11-08T01:19:03.402Z,72.98
2022-11-08T01:21:30.010Z,73.12
2022-11-08T01:23:56.693Z,73.55
2022-11-08T01:26:26.418Z,73.72
2022-11-08T01:28:53.880Z,74.86
2022-11-08T01:31:23.364Z,74.57
2022-11-08T01:33:51.732Z,74.91
2022-11-08T01:36:23.863Z,74.56
2022-11-08T01:38:50.613Z,74.83
2022-11-08T01:41:18.553Z,76.04
2022-11-08T01:43:50.694Z,75.49
2022-11-08T01:46:20.272Z,75.21
2022-11-08T01:48:53.932Z,74.94
2022-11-08T01:51:25.603Z,74.63
2022-11-08T01:53:52.309Z,74.58
2022-11-08T01:56:20.899Z,74.83
2022-11-08T01:58:49.292Z,74.88
2022-11-08T02:01:15.989Z,75.90
2022-11-08T02:03:43.070Z,76.17
2022-11-08T02:06:10.765Z,76.09
2022-11-08T02:08:42.847Z,76.30
2022-11-08T02:11:16.213Z,75.94
2022-11-08T02:13:42.884Z,75.20
2022-11-08T02:16:15.340Z,74.99
2022-11-08T02:18:44.080Z,74.09
2022-11-08T02:21:23.698Z,73.80
2022-11-08T02:23:59.124Z,72.98
2022-11-08T02:26:31.073Z,73.31
2022-11-08T02:28:58.454Z,72.98
2022-11-08T02:31:25.287Z,73.19
2022-11-08T02:33:52.072Z,72.85
2022-11-08T02:36:23.155Z,72.74
2022-11-08T02:38:57.178Z,72.84
2022-11-08T02:41:23.831Z,72.09
2022-11-08T02:43:50.378Z,72.69
2022-11-08T02:46:17.108Z,72.67
2022-11-08T02:48:43.668Z,72.73
2022-11-08T02:51:10.289Z,72.95
2022-11-08T02:53:37.132Z,72.82
2022-11-08T02:56:03.899Z,72.83
2022-11-08T02:58:30.446Z,72.67
2022-11-08T03:00:57.248Z,72.49
2022-11-08T03:03:24.207Z,73.19
2022-11-08T03:05:50.841Z,73.26
2022-11-08T03:08:17.627Z,73.08
2022-11-08T03:10:44.488Z,72.95
2022-11-08T03:13:11.085Z,73.68
2022-11-08T03:15:37.772Z,73.95
2022-11-08T03:18:04.429Z,74.08
2022-11-08T03:20:33.114Z,74.04
2022-11-08T03:23:05.928Z,73.94
2022-11-08T03:25:33.403Z,73.67
2022-11-08T03:28:05.186Z,73.53
2022-11-08T03:30:32.697Z,75.69
2022-11-08T03:32:59.293Z,75.15
2022-11-08T03:35:25.977Z,74.88
2022-11-08T03:37:54.891Z,74.63
2022-11-08T03:40:22.043Z,73.58
2022-11-08T03:42:48.779Z,73.29
2022-11-08T03:45:15.844Z,73.44
2022-11-08T03:47:44.684Z,74.16
2022-11-08T03:50:12.760Z,73.61
2022-11-08T03:52:44.669Z,73.66
2022-11-08T03:55:12.429Z,73.38
2022-11-08T03:57:43.500Z,73.27
2022-11-08T04:00:12.422Z,73.69
2022-11-08T04:02:40.054Z,73.13
2022-11-08T04:05:09.040Z,72.79
2022-11-08T04:07:36.607Z,73.77
2022-11-08T04:10:05.317Z,74.25
2022-11-08T04:12:32.127Z,74.23
2022-11-08T04:14:58.896Z,74.64
2022-11-08T04:17:25.457Z,74.76
2022-11-08T04:19:52.172Z,74.51
2022-11-08T04:22:18.907Z,73.73
2022-11-08T04:24:45.548Z,72.81
2022-11-08T04:27:12.087Z,72.44
2022-11-08T04:29:38.793Z,72.87
2022-11-08T04:32:05.423Z,73.39
2022-11-08T04:34:32.045Z,73.67
2022-11-08T04:36:58.671Z,73.80
2022-11-08T04:39:25.289Z,74.18
2022-11-08T04:41:51.841Z,74.78
2022-11-08T04:44:18.842Z,74.31
2022-11-08T04:46:45.424Z,73.59
2022-11-08T04:49:12.062Z,73.41
2022-11-08T04:51:38.683Z,73.72
2022-11-08T04:54:05.667Z,73.29
2022-11-08T04:56:32.226Z,73.78
2022-11-08T04:59:00.238Z,74.20
2022-11-08T05:01:29.419Z,73.86
2022-11-08T05:03:56.790Z,73.58
2022-11-08T05:06:26.764Z,73.22
2022-11-08T05:08:57.970Z,73.30
2022-11-08T05:11:26.956Z,73.51
2022-11-08T05:13:54.355Z,73.34
2022-11-08T05:16:26.807Z,73.11
2022-11-08T05:18:53.848Z,72.18
2022-11-08T05:21:22.332Z,72.63
2022-11-08T05:23:50.580Z,73.50
2022-11-08T05:26:19.088Z,73.81
2022-11-08T05:28:46.447Z,75.10
2022-11-08T05:31:14.033Z,74.91
2022-11-08T05:33:41.201Z,75.00
2022-11-08T05:36:10.588Z,74.37
2022-11-08T05:38:39.416Z,74.01
2022-11-08T05:41:08.336Z,74.72
2022-11-08T05:43:35.202Z,73.50
2022-11-08T05:46:02.388Z,74.00
2022-11-08T05:48:29.115Z,73.75
2022-11-08T05:50:55.851Z,74.07
2022-11-08T05:53:22.658Z,73.82
2022-11-08T05:55:49.412Z,74.60
2022-11-08T05:58:16.495Z,73.89
2022-11-08T06:00:43.055Z,74.48
2022-11-08T06:03:09.796Z,74.51
2022-11-08T06:05:36.529Z,74.61
2022-11-08T06:08:03.314Z,74.41
2022-11-08T06:10:29.871Z,73.88
2022-11-08T06:13:00.587Z,74.76
2022-11-08T06:15:27.215Z,75.75
2022-11-08T06:17:53.863Z,75.93
2022-11-08T06:20:20.748Z,75.27
2022-11-08T06:22:47.853Z,75.49
2022-11-08T06:25:14.445Z,76.92
2022-11-08T06:27:41.194Z,75.40
2022-11-08T06:30:08.585Z,75.41
2022-11-08T06:32:35.534Z,75.17
2022-11-08T06:35:02.429Z,75.45
2022-11-08T06:37:29.082Z,75.51
2022-11-08T06:39:55.677Z,75.47
2022-11-08T06:42:22.398Z,78.48
2022-11-08T06:44:48.961Z,77.91
2022-11-08T06:47:15.636Z,77.70
2022-11-08T06:49:42.296Z,77.42
2022-11-08T06:52:09.152Z,77.30
2022-11-08T06:54:35.752Z,77.90
2022-11-08T06:57:02.573Z,77.08
2022-11-08T06:59:29.186Z,78.05
2022-11-08T07:01:57.523Z,78.06
2022-11-08T07:04:24.432Z,77.53
2022-11-08T07:06:51.080Z,77.53
2022-11-08T07:09:18.342Z,77.14
2022-11-08T07:11:45.073Z,77.35
2022-11-08T07:14:11.676Z,77.97
2022-11-08T07:16:38.358Z,77.98
2022-11-08T07:19:05.100Z,78.07
2022-11-08T07:21:31.719Z,78.52
2022-11-08T07:23:58.279Z,79.06
2022-11-08T07:26:25.031Z,78.74
2022-11-08T07:28:51.601Z,78.67
2022-11-08T07:31:18.244Z,78.90
2022-11-08T07:33:44.890Z,78.45
2022-11-08T07:36:11.586Z,78.13
2022-11-08T07:38:38.158Z,78.23
2022-11-08T07:41:05.095Z,78.43
2022-11-08T07:43:31.870Z,78.30
2022-11-08T07:46:08.857Z,78.55
2022-11-08T07:48:35.497Z,78.69
2022-11-08T07:51:02.078Z,78.78
2022-11-08T07:53:29.085Z,79.10
2022-11-08T07:55:55.693Z,79.27
2022-11-08T07:58:22.388Z,79.40
2022-11-08T08:00:49.118Z,79.36
2022-11-08T08:03:16.576Z,78.82
2022-11-08T08:05:45.410Z,78.72
2022-11-08T08:08:13.116Z,79.09
2022-11-08T08:10:40.594Z,79.67
2022-11-08T08:13:08.046Z,80.24
2022-11-08T08:15:34.715Z,79.43
2022-11-08T08:18:03.530Z,79.87
2022-11-08T08:20:30.800Z,79.33
2022-11-08T08:22:58.266Z,79.33
2022-11-08T08:25:25.549Z,79.34
2022-11-08T08:27:54.856Z,79.35
2022-11-08T08:30:22.678Z,79.55
2022-11-08T08:33:08.435Z,80.12
2022-11-08T08:35:37.686Z,80.05
2022-11-08T08:38:06.068Z,80.57
2022-11-08T08:40:33.491Z,79.96
2022-11-08T08:43:00.585Z,79.74
2022-11-08T08:45:28.110Z,79.30
2022-11-08T08:47:56.794Z,79.70
2022-11-08T08:50:24.514Z,79.86
2022-11-08T08:52:51.086Z,79.62
2022-11-08T08:55:18.092Z,80.53
2022-11-08T08:57:46.354Z,80.29
2022-11-08T09:03:06.463Z,80.38
2022-11-08T09:05:34.541Z,80.78
2022-11-08T09:08:01.277Z,81.50
2022-11-08T09:10:28.450Z,81.82
2022-11-08T09:12:55.537Z,80.97
2022-11-08T09:15:22.533Z,80.59
2022-11-08T09:17:49.126Z,79.19
2022-11-08T09:20:15.797Z,76.42
2022-11-08T09:22:42.364Z,72.60
2022-11-08T09:25:09.342Z,71.80
2022-11-08T09:27:36.012Z,71.18
2022-11-08T09:30:02.872Z,67.63
2022-11-08T09:35:21.343Z,64.04
2022-11-08T09:37:49.847Z,64.32
2022-11-08T09:40:20.723Z,64.41
2022-11-08T09:43:06.211Z,63.80
2022-11-08T09:45:43.529Z,63.40
2022-11-08T09:48:24.725Z,62.85
2022-11-08T09:50:53.762Z,63.17
2022-11-08T09:53:52.481Z,63.97
2022-11-08T09:56:36.551Z,64.60
2022-11-08T09:59:05.897Z,63.66
2022-11-08T10:01:34.514Z,63.87
2022-11-08T10:04:25.482Z,64.44
2022-11-08T10:07:13.722Z,65.07
2022-11-08T10:09:59.226Z,62.18
2022-11-08T10:12:41.589Z,61.82
2022-11-08T10:15:14.286Z,62.41
2022-11-08T10:18:13.054Z,60.96
2022-11-08T10:20:51.538Z,60.35
2022-11-08T10:23:49.959Z,60.33
2022-11-08T10:26:24.134Z,60.02
2022-11-08T10:29:03.080Z,58.30
2022-11-08T10:31:31.692Z,57.34
2022-11-08T10:34:00.515Z,59.29
2022-11-08T10:36:45.090Z,56.66
2022-11-08T10:39:24.038Z,56.69
2022-11-08T10:42:10.359Z,57.92
2022-11-08T10:44:37.776Z,57.98
2022-11-08T10:47:10.754Z,56.25
2022-11-08T10:49:41.381Z,56.25
2022-11-08T10:52:11.166Z,53.32
2022-11-08T10:54:49.890Z,53.92
2022-11-08T10:57:23.089Z,49.83
2022-11-08T10:59:50.870Z,50.95
2022-11-08T11:02:21.027Z,51.29
2022-11-08T11:04:47.784Z,52.46
2022-11-08T11:07:32.543Z,50.46
2022-11-08T11:10:21.037Z,50.12
2022-11-08T11:13:11.702Z,50.30
2022-11-08T11:15:57.794Z,50.56
2022-11-08T11:18:47.674Z,49.39
2022-11-08T11:21:20.555Z,50.06
2022-11-08T11:23:51.618Z,49.14
2022-11-08T11:26:20.334Z,50.00
2022-11-08T11:29:04.993Z,49.11
2022-11-08T11:31:37.166Z,48.93
2022-11-08T11:34:18.771Z,48.42
2022-11-08T11:37:01.779Z,49.91
2022-11-08T11:39:34.638Z,48.76
2022-11-08T11:42:39.646Z,49.20
2022-11-08T11:45:10.865Z,48.66
2022-11-08T11:47:45.542Z,48.82
2022-11-08T11:50:24.212Z,48.71
2022-11-08T11:52:50.927Z,47.89
2022-11-08T11:55:17.970Z,48.09
2022-11-08T11:58:22.881Z,47.81
2022-11-08T12:01:02.917Z,48.21
2022-11-08T12:03:38.581Z,47.69
2022-11-08T12:06:14.573Z,49.20
2022-11-08T12:08:48.514Z,46.88
2022-11-08T12:11:58.004Z,47.21
2022-11-08T12:14:51.332Z,47.19
2022-11-08T12:17:27.017Z,47.55
2022-11-08T12:19:53.679Z,46.55
2022-11-08T12:22:45.500Z,46.70
2022-11-08T12:25:12.203Z,47.59
2022-11-08T12:27:53.754Z,48.08
2022-11-08T12:30:26.249Z,47.82
2022-11-08T12:32:52.880Z,48.13
2022-11-08T12:35:34.239Z,46.11
2022-11-08T12:38:34.197Z,47.96
2022-11-08T12:41:15.382Z,48.63
2022-11-08T12:44:10.450Z,48.13
2022-11-08T12:47:21.483Z,46.42
2022-11-08T12:50:03.941Z,46.39
2022-11-08T12:52:49.702Z,45.89
2022-11-08T12:55:44.054Z,46.49
2022-11-08T12:58:25.523Z,47.38
2022-11-08T13:00:56.877Z,45.04
2022-11-08T13:03:44.804Z,45.16
2022-11-08T13:06:32.808Z,45.98
2022-11-08T13:09:37.752Z,45.79
2022-11-08T13:12:07.132Z,47.87
2022-11-08T13:14:40.035Z,47.75
2022-11-08T13:17:09.167Z,47.77
2022-11-08T13:19:47.706Z,47.93
2022-11-08T13:22:29.517Z,46.70
2022-11-08T13:24:57.953Z,45.82
2022-11-08T13:27:45.657Z,46.58
2022-11-08T13:30:12.272Z,47.37
2022-11-08T13:33:09.952Z,47.26
2022-11-08T13:36:07.167Z,47.97
2022-11-08T13:39:03.617Z,48.78
2022-11-08T13:41:30.294Z,48.35
2022-11-08T13:43:58.965Z,49.57
2022-11-08T13:46:25.561Z,48.92
2022-11-08T13:48:58.365Z,48.63
2022-11-08T13:51:29.095Z,48.36
2022-11-08T13:54:05.178Z,49.30
2022-11-08T13:56:55.256Z,50.71
2022-11-08T13:59:30.789Z,49.92
2022-11-08T14:02:04.891Z,51.29
2022-11-08T14:04:35.164Z,50.06
2022-11-08T14:07:24.849Z,49.30
2022-11-08T14:10:19.705Z,50.66
2022-11-08T14:13:13.003Z,51.18
2022-11-08T14:15:57.034Z,51.07
2022-11-08T14:18:27.899Z,51.69
2022-11-08T14:20:55.099Z,50.52
2022-11-08T14:23:30.863Z,51.06
2022-11-08T14:26:02.858Z,52.00
2022-11-08T14:28:33.476Z,51.08
2022-11-08T14:31:01.958Z,51.49
2022-11-08T14:33:30.798Z,51.27
2022-11-08T14:36:03.794Z,52.50
2022-11-08T14:38:45.847Z,52.11
2022-11-08T14:41:18.736Z,51.69
2022-11-08T14:43:47.694Z,52.52
2022-11-08T14:46:35.555Z,53.17
2022-11-08T14:49:14.348Z,53.24
2022-11-08T14:51:45.174Z,52.99
2022-11-08T14:54:24.187Z,54.07
2022-11-08T14:56:51.309Z,53.39
2022-11-08T14:59:18.111Z,53.21
2022-11-08T15:01:48.636Z,54.09
2022-11-08T15:04:21.153Z,54.17
2022-11-08T15:06:57.449Z,54.57
2022-11-08T15:09:27.692Z,54.41
2022-11-08T15:12:00.626Z,54.69
2022-11-08T15:14:33.835Z,54.90
2022-11-08T15:17:03.350Z,54.65
2022-11-08T15:19:40.641Z,55.44
2022-11-08T15:22:42.846Z,55.60
2022-11-08T15:25:28.785Z,56.52
2022-11-08T15:28:20.194Z,56.33
2022-11-08T15:30:53.708Z,56.93
2022-11-08T15:33:33.675Z,56.18
2022-11-08T15:36:00.901Z,57.11
2022-11-08T15:38:29.308Z,56.25
2022-11-08T15:40:59.122Z,56.78
2022-11-08T15:43:31.600Z,56.99
2022-11-08T15:46:00.109Z,57.28
2022-11-08T15:48:27.071Z,56.56
2022-11-08T15:50:55.061Z,56.58
2022-11-08T15:53:21.626Z,56.80
2022-11-08T15:55:55.221Z,56.87
2022-11-08T15:58:30.991Z,57.66
2022-11-08T16:00:59.854Z,57.79
2022-11-08T16:03:27.202Z,57.49
2022-11-08T16:05:53.814Z,57.71
2022-11-08T16:08:21.203Z,57.80
2022-11-08T16:10:51.049Z,58.43
2022-11-08T16:13:37.513Z,57.89
2022-11-08T16:16:10.645Z,58.92
2022-11-08T16:18:37.237Z,58.79
2022-11-08T16:21:03.897Z,58.87
2022-11-08T16:23:30.529Z,58.56
2022-11-08T16:25:57.871Z,58.36
2022-11-08T16:28:31.800Z,58.44
2022-11-08T16:30:58.472Z,58.46
2022-11-08T16:33:27.650Z,58.36
2022-11-08T16:35:55.563Z,57.93
2022-11-08T16:38:32.516Z,57.62
2022-11-08T16:40:59.294Z,57.27
2022-11-08T16:43:25.854Z,57.41
2022-11-08T16:46:07.888Z,57.59
2022-11-08T16:48:37.355Z,57.33
2022-11-08T16:51:07.353Z,57.08
2022-11-08T16:53:35.585Z,57.73
2022-11-08T16:56:02.273Z,57.68
2022-11-08T16:58:28.898Z,58.21
2022-11-08T17:00:55.843Z,58.58
2022-11-08T17:03:24.549Z,58.83
2022-11-08T17:05:51.684Z,58.76
2022-11-08T17:08:18.779Z,58.07
2022-11-08T17:10:45.943Z,58.22
2022-11-08T17:13:14.739Z,58.08
2022-11-08T17:15:41.643Z,58.72
2022-11-08T17:18:11.639Z,58.71
2022-11-08T17:20:38.593Z,59.15
2022-11-08T17:23:05.829Z,58.60
2022-11-08T17:25:32.495Z,58.17
2022-11-08T17:27:59.151Z,58.80
2022-11-08T17:30:27.023Z,58.84
2022-11-08T17:32:54.138Z,58.39
2022-11-08T17:35:21.131Z,58.22
2022-11-08T17:37:47.747Z,58.57
2022-11-08T17:40:14.350Z,58.42
2022-11-08T17:42:41.011Z,58.57
2022-11-08T17:45:10.193Z,59.27
2022-11-08T17:47:37.362Z,59.11
2022-11-08T17:50:05.530Z,59.49
2022-11-08T17:52:32.700Z,58.96
2022-11-08T17:54:59.459Z,58.08
2022-11-08T17:57:26.212Z,58.36
2022-11-08T17:59:52.869Z,57.85
2022-11-08T18:02:20.148Z,57.64
2022-11-08T18:04:46.822Z,57.80
2022-11-08T18:07:13.608Z,57.96
2022-11-08T18:09:40.325Z,58.60
2022-11-08T18:12:06.999Z,59.63
2022-11-08T18:14:33.557Z,59.40
2022-11-08T18:17:00.294Z,59.64
2022-11-08T18:19:26.861Z,60.32
2022-11-08T18:21:53.561Z,60.55
2022-11-08T18:24:20.332Z,60.97
2022-11-08T18:26:47.019Z,61.51
2022-11-08T18:29:13.654Z,62.19
2022-11-08T18:31:40.374Z,62.90
2022-11-08T18:34:07.436Z,63.24
2022-11-08T18:36:34.461Z,63.22
2022-11-08T18:39:01.731Z,62.60
2022-11-08T18:41:31.300Z,62.36
2022-11-08T18:43:59.101Z,62.28
2022-11-08T18:46:28.551Z,62.13
2022-11-08T18:48:55.500Z,62.33
2022-11-08T18:51:23.156Z,62.09
2022-11-08T18:53:50.370Z,62.58
2022-11-08T18:56:17.016Z,61.85
2022-11-08T18:58:44.188Z,62.55
2022-11-08T19:01:11.652Z,62.06
2022-11-08T19:03:38.556Z,62.19
2022-11-08T19:06:05.714Z,61.91
2022-11-08T19:08:33.277Z,62.63
2022-11-08T19:11:03.312Z,62.84
2022-11-08T19:13:31.808Z,62.67
2022-11-08T19:16:01.137Z,62.77
2022-11-08T19:18:28.942Z,63.46
2022-11-08T19:20:56.525Z,63.11
2022-11-08T19:23:23.349Z,62.58
2022-11-08T19:25:58.217Z,62.25
2022-11-08T19:28:29.121Z,61.99
2022-11-08T19:30:59.570Z,61.88
2022-11-08T19:33:28.127Z,62.13
2022-11-08T19:35:55.560Z,62.12
2022-11-08T19:38:22.391Z,61.87
2022-11-08T19:40:49.228Z,61.47
2022-11-08T19:43:16.785Z,61.49
2022-11-08T19:45:50.657Z,61.43
2022-11-08T19:48:18.830Z,60.52
2022-11-08T19:50:45.621Z,60.23
2022-11-08T19:53:12.393Z,60.25
2022-11-08T19:55:39.022Z,60.26
2022-11-08T19:58:05.742Z,60.56
2022-11-08T20:00:32.347Z,60.42
2022-11-08T20:02:59.116Z,59.94
2022-11-08T20:05:25.678Z,59.99
2022-11-08T20:07:52.331Z,59.66
2022-11-08T20:10:18.964Z,59.60
2022-11-08T20:12:45.586Z,59.56
2022-11-08T20:15:12.131Z,59.74
2022-11-08T20:17:39.024Z,59.12
2022-11-08T20:20:06.034Z,59.08
2022-11-08T20:22:32.751Z,59.08
2022-11-08T20:24:59.412Z,59.15
2022-11-08T20:27:26.068Z,59.14
2022-11-08T20:29:52.617Z,59.29
2022-11-08T20:32:19.318Z,59.61
2022-11-08T20:34:46.587Z,59.95
2022-11-08T20:37:13.232Z,59.71
2022-11-08T20:39:40.292Z,60.21
2022-11-08T20:42:06.923Z,60.06
2022-11-08T20:44:33.502Z,60.02
2022-11-08T20:47:05.459Z,60.23
2022-11-08T20:49:33.138Z,60.49
2022-11-08T20:51:59.734Z,60.64
2022-11-08T20:54:26.441Z,61.19
2022-11-08T20:56:53.047Z,61.50
2022-11-08T20:59:19.702Z,61.37
2022-11-08T21:01:46.357Z,61.78
2022-11-08T21:04:13.064Z,62.13
2022-11-08T21:06:40.046Z,62.80
2022-11-08T21:09:32.804Z,62.89
2022-11-08T21:11:54.088Z,62.33
2022-11-08T21:14:20.818Z,62.37
2022-11-08T21:17:19.649Z,61.55
2022-11-08T21:19:34.182Z,62.27
2022-11-08T21:22:00.727Z,61.74
2022-11-08T21:24:27.359Z,62.11
2022-11-08T21:26:53.981Z,61.83
2022-11-08T21:29:20.646Z,61.40
2022-11-08T21:31:47.216Z,61.26
2022-11-08T21:34:13.869Z,61.27
2022-11-08T21:36:40.431Z,61.98
2022-11-08T21:39:07.101Z,62.44
2022-11-08T21:41:33.724Z,62.86
2022-11-08T21:44:00.356Z,62.73
2022-11-08T21:46:27.256Z,62.57
2022-11-08T21:48:56.368Z,63.21
2022-11-08T21:51:23.228Z,63.53
2022-11-08T21:53:57.269Z,63.85
2022-11-08T21:56:25.574Z,64.09
2022-11-08T21:58:52.442Z,64.25
2022-11-08T22:01:22.159Z,64.41
2022-11-08T22:03:50.907Z,64.46
2022-11-08T22:06:17.549Z,64.70
2022-11-08T22:08:44.337Z,64.31
2022-11-08T22:11:10.905Z,64.75
2022-11-08T22:13:37.602Z,64.78
2022-11-08T22:16:04.570Z,64.57
2022-11-08T22:18:50.819Z,64.49
2022-11-08T22:21:18.343Z,65.24
2022-11-08T22:23:44.896Z,65.37
2022-11-08T22:26:11.517Z,66.48
2022-11-08T22:28:38.191Z,66.27
2022-11-08T22:31:04.963Z,66.13
2022-11-08T22:33:31.503Z,66.74
2022-11-08T22:35:58.163Z,67.61
2022-11-08T22:38:25.299Z,67.01
2022-11-08T22:40:52.331Z,66.90
2022-11-08T22:43:18.976Z,66.66
2022-11-08T22:45:45.642Z,67.09
2022-11-08T22:48:12.185Z,66.07
2022-11-08T22:50:38.909Z,65.30
2022-11-08T22:53:05.771Z,64.77
2022-11-08T22:55:32.521Z,64.63
2022-11-08T22:57:59.106Z,64.75
2022-11-08T23:00:25.969Z,64.66
2022-11-08T23:02:52.502Z,63.92
2022-11-08T23:05:19.560Z,62.94
2022-11-08T23:07:46.100Z,62.91
2022-11-08T23:10:14.029Z,62.99
2022-11-08T23:12:40.765Z,62.94
2022-11-08T23:15:08.116Z,62.80
2022-11-08T23:17:34.690Z,62.68
2022-11-08T23:20:01.499Z,63.00
2022-11-08T23:22:28.069Z,63.25
2022-11-08T23:24:54.684Z,62.96
2022-11-08T23:27:21.688Z,62.45
2022-11-08T23:29:49.088Z,62.47
2022-11-08T23:32:15.619Z,62.65
2022-11-08T23:34:42.370Z,62.81
2022-11-08T23:37:08.932Z,63.15
2022-11-08T23:39:35.537Z,62.97
2022-11-08T23:42:02.287Z,63.16
2022-11-08T23:44:28.908Z,62.93
2022-11-08T23:46:58.159Z,63.72
2022-11-08T23:49:25.502Z,63.23
2022-11-08T23:51:52.405Z,63.46
2022-11-08T23:54:19.327Z,62.78
2022-11-08T23:56:46.144Z,63.36
2022-11-08T23:59:14.175Z,64.05
